createdAt,value
2023-02-17T00:02:06.522Z,44.25
2023-02-17T00:04:34.150Z,44.95
2023-02-17T00:07:01.316Z,44.58
2023-02-17T00:09:28.504Z,43.97
2023-02-17T00:11:55.664Z,46.45
2023-02-17T00:14:22.803Z,44.47
2023-02-17T00:16:50.115Z,45.08
2023-02-17T00:19:26.234Z,43.67
2023-02-17T00:21:54.321Z,46.70
2023-02-17T00:24:21.608Z,46.80
2023-02-17T00:26:48.753Z,45.50
2023-02-17T00:29:16.063Z,44.67
2023-02-17T00:31:43.482Z,46.97
2023-02-17T00:34:10.766Z,45.30
2023-02-17T00:36:38.690Z,46.30
2023-02-17T00:39:05.832Z,46.33
2023-02-17T00:41:33.093Z,46.40
2023-02-17T00:44:00.314Z,46.97
2023-02-17T00:46:27.729Z,47.70
2023-02-17T00:48:54.942Z,46.15
2023-02-17T00:51:22.194Z,46.65
2023-02-17T00:53:49.427Z,45.35
2023-02-17T00:56:16.652Z,44.08
2023-02-17T00:58:43.994Z,46.83
2023-02-17T01:01:11.315Z,49.10
2023-02-17T01:03:38.501Z,47.50
2023-02-17T01:06:06.776Z,46.50
2023-02-17T01:08:34.200Z,47.40
2023-02-17T01:11:01.390Z,45.20
2023-02-17T01:13:28.515Z,47.35
2023-02-17T01:15:55.743Z,45.93
2023-02-17T01:18:23.364Z,46.72
2023-02-17T01:20:50.665Z,47.47
2023-02-17T01:23:17.866Z,47.35
2023-02-17T01:25:45.717Z,48.83
2023-02-17T01:28:16.641Z,49.72
2023-02-17T01:30:43.846Z,48.10
2023-02-17T01:33:11.085Z,49.53
2023-02-17T01:35:39.351Z,46.70
2023-02-17T01:38:06.518Z,47.03
2023-02-17T01:40:33.680Z,49.13
2023-02-17T01:45:50.619Z,47.13
2023-02-17T01:48:18.401Z,45.90
2023-02-17T01:50:47.684Z,47.95
2023-02-17T01:53:15.783Z,47.42
2023-02-17T01:55:43.285Z,44.88
2023-02-17T01:58:11.409Z,48.97
2023-02-17T02:00:38.698Z,47.13
2023-02-17T02:03:06.655Z,45.92
2023-02-17T02:05:35.011Z,45.78
2023-02-17T02:08:03.109Z,46.70
2023-02-17T02:10:30.378Z,45.22
2023-02-17T02:12:57.533Z,44.83
2023-02-17T02:15:25.535Z,45.08
2023-02-17T02:17:52.697Z,44.13
2023-02-17T02:20:38.463Z,45.28
2023-02-17T02:23:23.992Z,44.33
2023-02-17T02:26:00.898Z,44.80
2023-02-17T02:28:34.319Z,43.95
2023-02-17T02:31:01.520Z,42.10
2023-02-17T02:33:28.692Z,40.65
2023-02-17T02:36:14.561Z,41.95
2023-02-17T02:38:42.729Z,40.85
2023-02-17T02:41:16.069Z,41.05
2023-02-17T02:43:43.199Z,39.58
2023-02-17T02:46:10.558Z,39.55
2023-02-17T02:48:37.816Z,37.50
2023-02-17T02:51:04.920Z,38.10
2023-02-17T02:53:35.157Z,39.15
2023-02-17T02:56:02.326Z,38.53
2023-02-17T02:58:49.756Z,38.58
2023-02-17T03:01:18.242Z,36.92
2023-02-17T03:03:57.607Z,35.95
2023-02-17T03:06:32.503Z,35.38
2023-02-17T03:09:12.726Z,32.87
2023-02-17T03:11:40.271Z,33.83
2023-02-17T03:14:11.584Z,33.05
2023-02-17T03:16:39.112Z,33.05
2023-02-17T03:19:06.460Z,31.02
2023-02-17T03:21:38.676Z,31.70
2023-02-17T03:24:06.107Z,32.47
2023-02-17T03:26:33.273Z,31.77
2023-02-17T03:29:00.638Z,31.92
2023-02-17T03:31:30.699Z,31.30
2023-02-17T03:33:58.072Z,30.70
2023-02-17T03:36:25.232Z,30.40
2023-02-17T03:38:52.346Z,30.08
2023-02-17T03:41:19.529Z,30.90
2023-02-17T03:43:46.679Z,29.92
2023-02-17T03:46:14.415Z,29.80
2023-02-17T03:48:41.592Z,30.92
2023-02-17T03:51:15.207Z,29.13
2023-02-17T03:53:42.577Z,29.65
2023-02-17T03:56:09.948Z,28.73
2023-02-17T03:58:37.221Z,30.27
2023-02-17T04:01:04.573Z,30.45
2023-02-17T04:03:31.855Z,29.65
2023-02-17T04:05:58.991Z,28.67
2023-02-17T04:08:26.157Z,29.08
2023-02-17T04:10:55.902Z,28.67
2023-02-17T04:13:23.110Z,28.30
2023-02-17T04:15:50.359Z,30.65
2023-02-17T04:18:17.638Z,29.40
2023-02-17T04:20:44.907Z,29.30
2023-02-17T04:23:14.516Z,29.58
2023-02-17T04:25:41.683Z,29.60
2023-02-17T04:28:08.844Z,29.70
2023-02-17T04:30:36.054Z,29.27
2023-02-17T04:33:03.296Z,29.30
2023-02-17T04:35:30.446Z,30.30
2023-02-17T04:37:57.596Z,29.55
2023-02-17T04:40:24.739Z,28.80
2023-02-17T04:42:51.875Z,29.73
2023-02-17T04:45:19.185Z,28.85
2023-02-17T04:47:46.323Z,29.73
2023-02-17T04:50:13.533Z,27.85
2023-02-17T04:52:40.705Z,28.25
2023-02-17T04:55:07.977Z,28.38
2023-02-17T04:57:35.162Z,29.33
2023-02-17T05:00:02.369Z,30.02
2023-02-17T05:02:30.494Z,29.02
2023-02-17T05:04:57.729Z,28.63
2023-02-17T05:07:24.903Z,29.48
2023-02-17T05:09:52.137Z,29.40
2023-02-17T05:12:19.413Z,28.10
2023-02-17T05:14:46.574Z,28.48
2023-02-17T05:17:13.730Z,27.88
2023-02-17T05:19:40.928Z,27.17
2023-02-17T05:22:08.114Z,27.05
2023-02-17T05:24:36.193Z,27.50
2023-02-17T05:27:04.245Z,27.73
2023-02-17T05:29:31.392Z,26.20
2023-02-17T05:31:58.573Z,28.40
2023-02-17T05:34:25.758Z,28.20
2023-02-17T05:36:52.977Z,27.75
2023-02-17T05:39:20.159Z,27.70
2023-02-17T05:41:47.315Z,27.38
2023-02-17T05:44:14.509Z,27.67
2023-02-17T05:46:41.714Z,27.60
2023-02-17T05:49:08.997Z,26.85
2023-02-17T05:51:36.368Z,25.75
2023-02-17T05:54:03.640Z,26.52
2023-02-17T05:56:30.955Z,26.67
2023-02-17T05:58:58.209Z,27.20
2023-02-17T06:01:25.486Z,28.15
2023-02-17T06:03:52.760Z,27.33
2023-02-17T06:06:20.029Z,26.13
2023-02-17T06:08:47.272Z,26.40
2023-02-17T06:11:14.593Z,26.88
2023-02-17T06:13:41.849Z,26.48
2023-02-17T06:16:09.413Z,25.83
2023-02-17T06:18:37.028Z,26.98
2023-02-17T06:21:04.331Z,25.58
2023-02-17T06:23:31.584Z,25.63
2023-02-17T06:25:58.744Z,23.90
2023-02-17T06:28:25.941Z,25.30
2023-02-17T06:30:53.121Z,25.25
2023-02-17T06:33:20.323Z,25.40
2023-02-17T06:35:51.152Z,24.63
2023-02-17T06:38:18.591Z,25.77
2023-02-17T06:40:45.783Z,23.95
2023-02-17T06:43:12.991Z,25.85
2023-02-17T06:45:40.898Z,25.13
2023-02-17T06:48:08.124Z,25.02
2023-02-17T06:50:35.964Z,25.70
2023-02-17T06:53:03.111Z,25.55
2023-02-17T06:55:30.313Z,25.23
2023-02-17T06:57:57.695Z,26.35
2023-02-17T07:00:24.850Z,26.08
2023-02-17T07:02:52.075Z,25.73
2023-02-17T07:05:19.411Z,25.95
2023-02-17T07:07:46.585Z,26.88
2023-02-17T07:10:14.024Z,27.60
2023-02-17T07:12:41.236Z,27.60
2023-02-17T07:15:12.050Z,27.73
2023-02-17T07:17:39.704Z,26.73
2023-02-17T07:20:07.483Z,26.02
2023-02-17T07:22:34.714Z,27.25
2023-02-17T07:25:01.882Z,26.50
2023-02-17T07:27:29.101Z,25.55
2023-02-17T07:29:56.374Z,27.40
2023-02-17T07:32:23.559Z,24.92
2023-02-17T07:34:50.711Z,24.63
2023-02-17T07:37:20.033Z,24.70
2023-02-17T07:39:47.149Z,24.07
2023-02-17T07:42:14.800Z,24.67
2023-02-17T07:44:41.936Z,24.02
2023-02-17T07:47:09.081Z,24.98
2023-02-17T07:49:36.294Z,22.88
2023-02-17T07:52:05.292Z,21.65
2023-02-17T07:54:32.663Z,20.63
2023-02-17T07:57:00.238Z,20.03
2023-02-17T07:59:27.466Z,20.38
2023-02-17T08:01:54.648Z,18.55
2023-02-17T08:04:21.851Z,18.17
2023-02-17T08:06:49.092Z,18.25
2023-02-17T08:09:35.012Z,18.40
2023-02-17T08:12:20.660Z,17.88
2023-02-17T08:14:47.789Z,18.02
2023-02-17T08:17:15.184Z,17.98
2023-02-17T08:19:48.636Z,16.70
2023-02-17T08:22:17.233Z,17.57
2023-02-17T08:24:44.410Z,16.17
2023-02-17T08:27:11.615Z,17.08
2023-02-17T08:29:38.817Z,16.55
2023-02-17T08:32:06.208Z,16.50
2023-02-17T08:34:36.636Z,17.02
2023-02-17T08:37:04.275Z,17.02
2023-02-17T08:39:31.629Z,17.08
2023-02-17T08:41:58.973Z,16.50
2023-02-17T08:44:26.364Z,17.25
2023-02-17T08:46:53.699Z,18.35
2023-02-17T08:49:22.346Z,17.58
2023-02-17T08:51:49.682Z,17.63
2023-02-17T08:54:17.039Z,16.77
2023-02-17T08:56:44.436Z,15.93
2023-02-17T08:59:12.156Z,16.25
2023-02-17T09:01:39.776Z,16.27
2023-02-17T09:04:07.464Z,16.48
2023-02-17T09:06:35.538Z,16.25
2023-02-17T09:09:03.084Z,15.57
2023-02-17T09:11:30.413Z,15.73
2023-02-17T09:13:57.627Z,16.85
2023-02-17T09:16:25.056Z,16.80
2023-02-17T09:18:55.372Z,16.67
2023-02-17T09:21:22.609Z,15.73
2023-02-17T09:23:49.803Z,14.67
2023-02-17T09:26:17.454Z,14.90
2023-02-17T09:28:44.662Z,14.67
2023-02-17T09:31:18.856Z,14.48
2023-02-17T09:33:47.774Z,13.55
2023-02-17T09:36:15.955Z,14.52
2023-02-17T09:38:43.302Z,13.75
2023-02-17T09:41:18.000Z,13.27
2023-02-17T09:43:45.206Z,13.80
2023-02-17T09:46:30.804Z,14.27
2023-02-17T09:49:00.056Z,14.25
2023-02-17T09:51:29.341Z,15.88
2023-02-17T09:54:16.443Z,15.65
2023-02-17T09:56:46.207Z,14.57
2023-02-17T09:59:21.068Z,15.73
2023-02-17T10:01:48.484Z,15.30
2023-02-17T10:04:17.271Z,15.60
2023-02-17T10:06:45.845Z,18.05
2023-02-17T10:09:13.242Z,32.65
2023-02-17T10:11:40.512Z,23.75
2023-02-17T10:14:16.480Z,30.45
2023-02-17T10:16:49.294Z,37.15
2023-02-17T10:19:26.725Z,35.95
2023-02-17T10:21:58.104Z,29.88
2023-02-17T10:24:25.708Z,19.70
2023-02-17T10:27:01.712Z,17.70
2023-02-17T10:29:28.921Z,15.10
2023-02-17T10:31:56.710Z,14.18
2023-02-17T10:34:41.125Z,14.18
2023-02-17T10:37:11.295Z,13.60
2023-02-17T10:39:53.992Z,13.98
2023-02-17T10:42:31.519Z,12.70
2023-02-17T10:45:16.473Z,14.00
2023-02-17T10:47:43.654Z,13.27
2023-02-17T10:50:20.782Z,12.80
2023-02-17T10:52:48.008Z,13.43
2023-02-17T10:55:24.537Z,14.38
2023-02-17T10:57:54.421Z,12.85
2023-02-17T11:00:22.579Z,14.40
2023-02-17T11:02:51.579Z,13.35
2023-02-17T11:05:22.426Z,11.98
2023-02-17T11:07:49.613Z,13.20
2023-02-17T11:10:31.103Z,12.50
2023-02-17T11:12:58.808Z,12.20
2023-02-17T11:15:30.375Z,12.93
2023-02-17T11:17:57.548Z,12.53
2023-02-17T11:20:25.068Z,13.50
2023-02-17T11:23:15.287Z,12.30
2023-02-17T11:25:42.653Z,12.13
2023-02-17T11:28:13.723Z,13.20
2023-02-17T11:30:41.741Z,13.48
2023-02-17T11:33:15.377Z,10.43
2023-02-17T11:35:42.581Z,9.73
2023-02-17T11:38:13.719Z,10.10
2023-02-17T11:40:40.920Z,10.47
2023-02-17T11:43:08.275Z,10.50
2023-02-17T11:45:43.373Z,10.63
2023-02-17T11:48:29.302Z,10.60
2023-02-17T11:50:58.577Z,10.10
2023-02-17T11:53:28.761Z,10.10
2023-02-17T11:55:59.495Z,10.57
2023-02-17T11:58:56.870Z,11.13
2023-02-17T12:01:42.761Z,10.77
2023-02-17T12:04:45.766Z,10.70
2023-02-17T12:07:28.212Z,10.27
2023-02-17T12:10:04.765Z,9.60
2023-02-17T12:12:34.978Z,9.55
2023-02-17T12:15:04.924Z,8.82
2023-02-17T12:17:41.051Z,8.57
2023-02-17T12:20:31.684Z,8.85
2023-02-17T12:23:07.577Z,9.18
2023-02-17T12:25:42.704Z,8.98
2023-02-17T12:28:19.193Z,8.35
2023-02-17T12:30:52.511Z,8.48
2023-02-17T12:33:22.569Z,8.35
2023-02-17T12:35:52.824Z,8.38
2023-02-17T12:38:24.761Z,9.85
2023-02-17T12:40:53.420Z,13.20
2023-02-17T12:43:27.900Z,45.63
2023-02-17T12:45:55.981Z,23.58
2023-02-17T12:48:30.846Z,9.75
2023-02-17T12:51:03.831Z,19.42
2023-02-17T12:53:34.218Z,37.88
2023-02-17T12:56:01.722Z,9.98
2023-02-17T12:58:29.662Z,6.43
2023-02-17T13:01:09.190Z,7.97
2023-02-17T13:03:36.676Z,6.93
2023-02-17T13:06:22.662Z,13.90
2023-02-17T13:08:52.890Z,7.70
2023-02-17T13:11:27.566Z,7.33
2023-02-17T13:13:54.754Z,9.15
2023-02-17T13:16:21.960Z,7.43
2023-02-17T13:18:50.528Z,7.57
2023-02-17T13:21:22.844Z,7.13
2023-02-17T13:24:02.206Z,7.28
2023-02-17T13:26:30.764Z,16.48
2023-02-17T13:29:09.932Z,9.98
2023-02-17T13:31:47.283Z,10.38
2023-02-17T13:34:24.175Z,6.63
2023-02-17T13:36:51.383Z,8.85
2023-02-17T13:39:27.695Z,6.40
2023-02-17T13:41:55.944Z,7.47
2023-02-17T13:44:28.964Z,6.45
2023-02-17T13:47:16.384Z,7.22
2023-02-17T13:49:43.513Z,6.82
2023-02-17T13:52:12.265Z,6.47
2023-02-17T13:54:39.490Z,6.10
2023-02-17T13:57:06.662Z,5.97
2023-02-17T13:59:37.211Z,7.40
2023-02-17T14:02:04.489Z,7.35
2023-02-17T14:04:31.863Z,9.63
2023-02-17T14:06:59.714Z,6.32
2023-02-17T14:09:28.170Z,6.90
2023-02-17T14:11:55.583Z,5.93
2023-02-17T14:14:23.872Z,6.28
2023-02-17T14:17:04.137Z,6.13
2023-02-17T14:19:42.220Z,8.43
2023-02-17T14:22:22.312Z,8.20
2023-02-17T14:24:49.491Z,5.88
2023-02-17T14:27:16.640Z,5.10
2023-02-17T14:29:44.755Z,4.77
2023-02-17T14:32:30.954Z,5.80
2023-02-17T14:35:30.469Z,5.40
2023-02-17T14:38:07.014Z,5.50
2023-02-17T14:40:34.144Z,5.20
2023-02-17T14:43:01.315Z,4.03
2023-02-17T14:45:30.411Z,5.57
2023-02-17T14:47:57.839Z,6.75
2023-02-17T14:50:24.966Z,5.03
2023-02-17T14:52:53.028Z,5.45
2023-02-17T14:55:33.745Z,3.78
2023-02-17T14:58:01.055Z,2.92
2023-02-17T15:00:28.220Z,4.50
2023-02-17T15:02:55.766Z,4.65
2023-02-17T15:05:22.939Z,2.92
2023-02-17T15:07:50.493Z,2.22
2023-02-17T15:10:21.862Z,2.42
2023-02-17T15:12:49.158Z,2.47
2023-02-17T15:15:16.811Z,2.63
2023-02-17T15:17:43.987Z,2.40
2023-02-17T15:20:11.853Z,3.20
2023-02-17T15:22:41.726Z,2.90
2023-02-17T15:25:12.120Z,3.05
2023-02-17T15:27:39.269Z,3.10
2023-02-17T15:30:07.668Z,4.07
2023-02-17T15:32:34.871Z,2.75
2023-02-17T15:35:02.009Z,3.20
2023-02-17T15:37:29.185Z,2.80
2023-02-17T15:39:56.370Z,1.43
2023-02-17T15:42:25.432Z,2.20
2023-02-17T15:44:52.720Z,2.80
2023-02-17T15:47:20.571Z,2.03
2023-02-17T15:49:47.750Z,2.47
2023-02-17T15:52:15.118Z,2.33
2023-02-17T15:54:42.755Z,2.17
2023-02-17T15:57:14.852Z,2.65
2023-02-17T15:59:42.381Z,2.63
2023-02-17T16:02:17.972Z,2.87
2023-02-17T16:04:45.714Z,2.25
2023-02-17T16:07:12.976Z,1.90
2023-02-17T16:09:40.217Z,1.85
2023-02-17T16:12:09.580Z,2.47
2023-02-17T16:14:37.243Z,2.85
2023-02-17T16:17:04.726Z,2.72
2023-02-17T16:19:33.368Z,2.70
2023-02-17T16:22:00.580Z,2.25
2023-02-17T16:24:28.181Z,2.88
2023-02-17T16:26:56.396Z,3.38
2023-02-17T16:29:23.744Z,3.70
2023-02-17T16:31:51.969Z,3.17
2023-02-17T16:34:23.422Z,3.90
2023-02-17T16:36:51.230Z,3.83
2023-02-17T16:39:20.114Z,4.10
2023-02-17T16:41:47.753Z,3.97
2023-02-17T16:44:18.131Z,4.32
2023-02-17T16:46:49.175Z,4.32
2023-02-17T16:49:32.676Z,3.97
2023-02-17T16:52:00.616Z,3.78
2023-02-17T16:54:27.822Z,4.38
2023-02-17T16:56:54.991Z,3.45
2023-02-17T16:59:22.892Z,4.18
2023-02-17T17:01:51.057Z,4.32
2023-02-17T17:04:18.291Z,22.40
2023-02-17T17:06:46.566Z,12.80
2023-02-17T17:09:17.397Z,8.10
2023-02-17T17:11:44.571Z,6.03
2023-02-17T17:14:12.016Z,4.70
2023-02-17T17:16:40.235Z,4.88
2023-02-17T17:19:07.606Z,4.05
2023-02-17T17:21:34.802Z,4.13
2023-02-17T17:24:01.959Z,3.87
2023-02-17T17:26:32.136Z,4.40
2023-02-17T17:28:59.505Z,4.38
2023-02-17T17:31:27.004Z,3.75
2023-02-17T17:33:55.015Z,3.08
2023-02-17T17:36:28.385Z,3.00
2023-02-17T17:38:55.723Z,3.85
2023-02-17T17:41:23.142Z,3.50
2023-02-17T17:43:51.555Z,4.65
2023-02-17T17:46:19.889Z,4.43
2023-02-17T17:48:47.115Z,3.50
2023-02-17T17:51:15.108Z,4.13
2023-02-17T17:53:42.389Z,4.40
2023-02-17T17:56:13.260Z,3.97
2023-02-17T17:58:40.668Z,4.13
2023-02-17T18:01:07.858Z,4.50
2023-02-17T18:03:35.041Z,5.10
2023-02-17T18:06:02.273Z,3.88
2023-02-17T18:08:29.510Z,4.57
2023-02-17T18:10:56.782Z,4.50
2023-02-17T18:13:23.932Z,4.57
2023-02-17T18:15:51.527Z,4.05
2023-02-17T18:18:18.824Z,3.97
2023-02-17T18:20:46.041Z,4.35
2023-02-17T18:23:13.379Z,3.60
2023-02-17T18:25:41.582Z,4.30
2023-02-17T18:28:08.901Z,3.95
2023-02-17T18:30:37.189Z,3.75
2023-02-17T18:33:04.691Z,3.90
2023-02-17T18:35:34.704Z,4.25
2023-02-17T18:38:01.851Z,3.75
2023-02-17T18:40:29.270Z,4.47
2023-02-17T18:42:56.488Z,4.38
2023-02-17T18:45:26.509Z,3.42
2023-02-17T18:47:53.720Z,3.90
2023-02-17T18:50:20.943Z,3.50
2023-02-17T18:52:48.142Z,4.30
2023-02-17T18:55:15.579Z,4.60
2023-02-17T18:57:44.890Z,4.10
2023-02-17T19:00:13.176Z,4.28
2023-02-17T19:02:40.853Z,3.35
2023-02-17T19:05:08.570Z,3.35
2023-02-17T19:07:35.775Z,3.33
2023-02-17T19:10:02.931Z,3.15
2023-02-17T19:12:30.084Z,3.77
2023-02-17T19:14:57.239Z,3.35
2023-02-17T19:17:24.516Z,4.32
2023-02-17T19:19:51.812Z,4.45
2023-02-17T19:22:19.236Z,3.33
2023-02-17T19:24:46.494Z,3.97
2023-02-17T19:27:13.695Z,4.50
2023-02-17T19:29:41.252Z,3.97
2023-02-17T19:32:08.491Z,3.72
2023-02-17T19:34:35.762Z,3.67
2023-02-17T19:37:03.006Z,3.35
2023-02-17T19:39:30.846Z,3.25
2023-02-17T19:41:57.991Z,3.20
2023-02-17T19:44:25.211Z,3.78
2023-02-17T19:46:53.845Z,3.22
2023-02-17T19:49:21.488Z,3.22
2023-02-17T19:51:49.956Z,3.50
2023-02-17T19:54:17.258Z,4.25
2023-02-17T19:56:44.514Z,3.35
2023-02-17T19:59:11.667Z,3.22
2023-02-17T20:01:39.733Z,3.80
2023-02-17T20:04:08.848Z,2.90
2023-02-17T20:06:40.098Z,3.30
2023-02-17T20:09:08.370Z,3.55
2023-02-17T20:11:35.537Z,3.45
2023-02-17T20:14:02.752Z,3.25
2023-02-17T20:16:30.129Z,4.93
2023-02-17T20:18:57.386Z,3.80
2023-02-17T20:21:25.393Z,3.47
2023-02-17T20:23:52.843Z,3.80
2023-02-17T20:26:21.781Z,3.50
2023-02-17T20:28:49.069Z,4.10
2023-02-17T20:31:16.353Z,3.83
2023-02-17T20:33:44.383Z,3.72
2023-02-17T20:36:11.952Z,3.90
2023-02-17T20:38:39.612Z,3.78
2023-02-17T20:41:07.720Z,3.83
2023-02-17T20:43:35.078Z,3.70
2023-02-17T20:46:02.782Z,2.97
2023-02-17T20:48:29.978Z,2.88
2023-02-17T20:50:57.683Z,3.33
2023-02-17T20:53:25.189Z,3.17
2023-02-17T20:55:52.483Z,2.83
2023-02-17T20:58:19.726Z,4.05
2023-02-17T21:00:47.521Z,3.88
2023-02-17T21:03:14.814Z,3.72
2023-02-17T21:05:42.103Z,3.00
2023-02-17T21:08:09.936Z,3.42
2023-02-17T21:10:39.844Z,3.93
2023-02-17T21:13:07.046Z,2.60
2023-02-17T21:15:34.490Z,3.05
2023-02-17T21:18:01.721Z,3.95
2023-02-17T21:20:29.597Z,3.30
2023-02-17T21:22:56.841Z,2.65
2023-02-17T21:25:24.160Z,2.80
2023-02-17T21:27:51.320Z,3.55
2023-02-17T21:30:18.680Z,3.17
2023-02-17T21:32:45.943Z,2.03
2023-02-17T21:35:13.101Z,2.72
2023-02-17T21:37:40.382Z,3.10
2023-02-17T21:40:08.219Z,2.70
2023-02-17T21:42:55.873Z,3.20
2023-02-17T21:45:23.454Z,3.80
2023-02-17T21:47:50.735Z,2.83
2023-02-17T21:50:18.538Z,3.00
2023-02-17T21:52:45.774Z,3.10
2023-02-17T21:55:13.040Z,2.67
2023-02-17T21:57:40.470Z,3.63
2023-02-17T22:00:08.837Z,2.92
2023-02-17T22:02:36.673Z,3.78
2023-02-17T22:05:04.775Z,3.17
2023-02-17T22:07:31.956Z,3.53
2023-02-17T22:09:59.572Z,2.90
2023-02-17T22:12:26.841Z,3.30
2023-02-17T22:14:54.084Z,3.25
2023-02-17T22:17:21.251Z,3.90
2023-02-17T22:19:48.394Z,3.15
2023-02-17T22:22:15.574Z,3.60
2023-02-17T22:24:42.750Z,3.47
2023-02-17T22:27:09.963Z,3.88
2023-02-17T22:29:37.158Z,3.05
2023-02-17T22:32:04.565Z,2.45
2023-02-17T22:34:31.851Z,2.50
2023-02-17T22:36:59.004Z,2.88
2023-02-17T22:39:26.132Z,2.30
2023-02-17T22:41:53.349Z,2.63
2023-02-17T22:44:20.592Z,3.03
2023-02-17T22:46:47.735Z,2.70
2023-02-17T22:49:14.892Z,2.45
2023-02-17T22:51:42.038Z,3.03
2023-02-17T22:54:09.271Z,2.80
2023-02-17T22:56:36.439Z,2.45
2023-02-17T22:59:05.640Z,2.90
2023-02-17T23:01:33.963Z,2.95
2023-02-17T23:04:01.433Z,3.55
2023-02-17T23:06:29.807Z,2.78
2023-02-17T23:08:57.063Z,3.05
2023-02-17T23:11:49.596Z,3.28
2023-02-17T23:14:18.179Z,2.67
2023-02-17T23:16:45.665Z,2.80
2023-02-17T23:19:14.490Z,3.00
2023-02-17T23:21:45.452Z,2.90
2023-02-17T23:24:12.771Z,3.72
2023-02-17T23:26:40.298Z,3.17
2023-02-17T23:29:07.607Z,2.65
2023-02-17T23:31:34.899Z,3.17
2023-02-17T23:34:02.173Z,3.28
2023-02-17T23:36:29.787Z,2.90
2023-02-17T23:38:58.695Z,2.83
2023-02-17T23:41:26.165Z,3.30
2023-02-17T23:43:53.449Z,3.33
2023-02-17T23:46:20.837Z,2.85
2023-02-17T23:48:48.315Z,3.43
2023-02-17T23:51:16.395Z,4.10
2023-02-17T23:53:43.651Z,3.90
2023-02-17T23:56:13.610Z,2.88
2023-02-17T23:58:40.790Z,3.72
